createdAt,value
2022-10-19T00:04:09.253Z,19.85
2022-10-19T00:09:30.954Z,19.83
2022-10-19T00:14:52.622Z,19.82
2022-10-19T00:20:14.282Z,19.79
2022-10-19T00:25:37.130Z,19.79
2022-10-19T00:31:10.776Z,19.79
2022-10-19T00:36:35.928Z,19.78
2022-10-19T00:41:57.613Z,19.77
2022-10-19T00:47:23.506Z,19.76
2022-10-19T00:52:45.215Z,19.74
2022-10-19T00:58:08.061Z,19.74
2022-10-19T01:03:29.939Z,19.73
2022-10-19T01:08:51.653Z,19.71
2022-10-19T01:15:01.746Z,19.68
2022-10-19T01:20:42.294Z,19.67
2022-10-19T01:26:51.516Z,19.68
2022-10-19T01:32:36.783Z,19.64
2022-10-19T01:38:16.304Z,19.65
2022-10-19T01:43:59.482Z,19.64
2022-10-19T01:49:29.712Z,19.63
2022-10-19T01:54:57.478Z,19.61
2022-10-19T02:00:20.031Z,19.61
2022-10-19T02:05:42.707Z,19.60
2022-10-19T02:11:04.676Z,19.60
2022-10-19T02:16:34.640Z,19.60
2022-10-19T02:21:59.455Z,19.58
2022-10-19T02:27:21.556Z,19.58
2022-10-19T02:32:44.537Z,19.56
2022-10-19T02:38:09.097Z,19.55
2022-10-19T02:43:34.651Z,19.54
2022-10-19T02:48:57.242Z,19.51
2022-10-19T02:54:19.056Z,19.53
2022-10-19T02:59:40.717Z,19.51
2022-10-19T03:05:02.649Z,19.51
2022-10-19T03:10:24.607Z,19.50
2022-10-19T03:15:46.364Z,19.49
2022-10-19T03:21:11.638Z,19.48
2022-10-19T03:26:33.437Z,19.47
2022-10-19T03:31:55.683Z,19.45
2022-10-19T03:37:17.358Z,19.45
2022-10-19T03:42:38.994Z,19.43
2022-10-19T03:48:00.634Z,19.44
2022-10-19T03:53:22.305Z,19.42
2022-10-19T03:58:45.685Z,19.42
2022-10-19T04:04:14.122Z,19.40
2022-10-19T04:09:35.829Z,19.38
2022-10-19T04:14:57.915Z,19.37
2022-10-19T04:20:19.706Z,19.37
2022-10-19T04:25:41.347Z,19.36
2022-10-19T04:31:04.906Z,19.36
2022-10-19T04:36:26.664Z,19.34
2022-10-19T04:41:48.337Z,19.32
2022-10-19T04:47:09.994Z,19.32
2022-10-19T04:52:31.755Z,19.30
2022-10-19T04:57:53.411Z,19.29
2022-10-19T05:03:15.501Z,19.31
2022-10-19T05:08:37.967Z,19.29
2022-10-19T05:13:59.799Z,19.30
2022-10-19T05:19:21.465Z,19.30
2022-10-19T05:24:43.118Z,19.29
2022-10-19T05:30:06.707Z,19.33
2022-10-19T05:35:28.463Z,19.31
2022-10-19T05:40:52.968Z,19.30
2022-10-19T05:46:19.504Z,19.29
2022-10-19T05:51:41.421Z,19.27
2022-10-19T05:57:03.082Z,19.26
2022-10-19T06:02:24.849Z,19.24
2022-10-19T06:07:46.490Z,19.22
2022-10-19T06:13:08.231Z,19.21
2022-10-19T06:18:29.970Z,19.19
2022-10-19T06:23:55.985Z,19.19
2022-10-19T06:29:18.281Z,19.18
2022-10-19T06:34:39.960Z,19.20
2022-10-19T06:40:06.717Z,19.23
2022-10-19T06:45:32.282Z,19.29
2022-10-19T06:51:01.600Z,19.34
2022-10-19T06:56:24.806Z,19.39
2022-10-19T07:01:49.197Z,19.68
2022-10-19T07:07:10.889Z,20.43
2022-10-19T07:12:32.578Z,21.17
2022-10-19T07:17:54.470Z,21.46
2022-10-19T07:23:16.114Z,21.18
2022-10-19T07:28:42.188Z,21.18
2022-10-19T07:34:05.082Z,21.61
2022-10-19T07:39:27.603Z,22.17
2022-10-19T07:44:49.225Z,22.59
2022-10-19T07:50:10.962Z,24.20
2022-10-19T07:55:34.649Z,23.49
2022-10-19T08:01:04.508Z,24.40
2022-10-19T08:06:26.459Z,24.86
2022-10-19T08:11:48.123Z,25.77
2022-10-19T08:17:12.087Z,26.76
2022-10-19T08:22:34.315Z,25.18
2022-10-19T08:27:56.265Z,23.72
2022-10-19T08:33:17.909Z,22.93
2022-10-19T08:38:40.311Z,22.44
2022-10-19T08:44:10.199Z,22.15
2022-10-19T08:49:32.671Z,21.92
2022-10-19T08:55:29.745Z,21.72
2022-10-19T09:01:01.065Z,21.54
2022-10-19T09:06:45.070Z,21.42
2022-10-19T09:12:08.039Z,21.26
2022-10-19T09:17:31.430Z,21.13
2022-10-19T09:23:08.686Z,21.01
2022-10-19T09:28:52.525Z,20.87
2022-10-19T09:34:26.038Z,20.78
2022-10-19T09:39:53.927Z,20.66
2022-10-19T09:45:38.203Z,20.59
2022-10-19T09:51:02.748Z,20.51
2022-10-19T09:56:26.499Z,20.46
2022-10-19T10:02:00.822Z,20.41
2022-10-19T10:07:27.643Z,20.35
2022-10-19T10:12:49.695Z,20.27
2022-10-19T10:18:16.606Z,20.23
2022-10-19T10:23:38.377Z,20.17
2022-10-19T10:29:01.483Z,20.13
2022-10-19T10:34:45.349Z,20.10
2022-10-19T10:40:30.094Z,20.05
2022-10-19T10:45:54.604Z,20.00
2022-10-19T10:51:42.978Z,19.97
2022-10-19T10:57:20.689Z,19.92
2022-10-19T11:02:58.701Z,19.87
2022-10-19T11:08:36.132Z,19.85
2022-10-19T11:14:07.575Z,19.82
2022-10-19T11:19:43.257Z,19.82
2022-10-19T11:25:36.191Z,19.81
2022-10-19T11:31:10.990Z,19.84
2022-10-19T11:37:04.866Z,19.87
2022-10-19T11:43:11.562Z,19.90
2022-10-19T11:48:34.105Z,19.92
2022-10-19T11:54:14.691Z,19.94
2022-10-19T11:59:43.372Z,19.97
2022-10-19T12:05:12.734Z,19.98
2022-10-19T12:11:02.630Z,19.99
2022-10-19T12:16:42.296Z,20.01
2022-10-19T12:22:07.273Z,19.99
2022-10-19T12:27:41.815Z,20.00
2022-10-19T12:33:25.815Z,20.00
2022-10-19T12:39:23.359Z,20.00
2022-10-19T12:45:06.674Z,19.97
2022-10-19T12:50:49.971Z,19.98
2022-10-19T12:56:26.927Z,19.96
2022-10-19T13:01:48.734Z,19.97
2022-10-19T13:07:18.339Z,19.99
2022-10-19T13:12:46.346Z,19.99
2022-10-19T13:18:24.047Z,20.00
2022-10-19T13:23:46.789Z,20.01
2022-10-19T13:29:25.139Z,20.02
2022-10-19T13:34:47.360Z,20.02
2022-10-19T13:40:23.764Z,20.03
2022-10-19T13:45:59.367Z,20.03
2022-10-19T13:51:43.941Z,20.01
2022-10-19T13:57:20.402Z,20.01
2022-10-19T14:03:12.778Z,20.01
2022-10-19T14:08:58.941Z,19.99
2022-10-19T14:14:23.685Z,19.96
2022-10-19T14:19:52.452Z,19.95
2022-10-19T14:25:23.153Z,19.93
2022-10-19T14:30:44.822Z,19.88
2022-10-19T14:36:13.919Z,19.86
2022-10-19T14:41:37.549Z,19.85
2022-10-19T14:47:01.933Z,19.83
2022-10-19T14:52:31.872Z,19.81
2022-10-19T14:57:54.291Z,19.79
2022-10-19T15:03:29.570Z,19.78
2022-10-19T15:09:03.876Z,19.77
2022-10-19T15:14:30.995Z,19.75
2022-10-19T15:19:56.051Z,19.74
2022-10-19T15:25:43.884Z,19.73
2022-10-19T15:31:18.511Z,19.74
2022-10-19T15:36:55.386Z,19.71
2022-10-19T15:42:39.109Z,19.68
2022-10-19T15:48:09.689Z,19.65
2022-10-19T15:53:31.385Z,19.60
2022-10-19T15:58:55.241Z,19.63
2022-10-19T16:04:17.703Z,19.65
2022-10-19T16:09:39.324Z,19.66
2022-10-19T16:15:01.047Z,19.68
2022-10-19T16:20:23.743Z,19.73
2022-10-19T16:25:45.423Z,19.74
2022-10-19T16:31:07.350Z,19.77
2022-10-19T16:36:29.054Z,19.77
2022-10-19T16:41:50.706Z,19.79
2022-10-19T16:47:12.345Z,19.80
2022-10-19T16:52:34.602Z,19.81
2022-10-19T16:57:56.643Z,19.81
2022-10-19T17:03:18.328Z,19.80
2022-10-19T17:09:07.389Z,19.84
2022-10-19T17:14:22.275Z,19.87
2022-10-19T17:19:43.932Z,19.93
2022-10-19T17:25:06.133Z,20.01
2022-10-19T17:30:27.819Z,20.05
2022-10-19T17:35:49.460Z,20.04
2022-10-19T17:41:15.021Z,20.04
2022-10-19T17:46:36.882Z,19.99
2022-10-19T17:51:58.648Z,19.99
2022-10-19T17:57:20.339Z,19.95
2022-10-19T18:02:44.629Z,19.92
2022-10-19T18:08:06.394Z,19.92
2022-10-19T18:13:29.089Z,19.89
2022-10-19T18:18:53.560Z,19.96
2022-10-19T18:24:19.694Z,20.10
2022-10-19T18:29:41.350Z,20.26
2022-10-19T18:35:03.072Z,20.38
2022-10-19T18:40:24.795Z,20.47
2022-10-19T18:45:58.102Z,20.58
2022-10-19T18:51:21.332Z,20.66
2022-10-19T18:56:43.065Z,20.71
2022-10-19T19:02:05.838Z,20.78
2022-10-19T19:07:27.674Z,20.80
2022-10-19T19:12:51.085Z,20.79
2022-10-19T19:18:12.858Z,20.73
2022-10-19T19:23:34.665Z,20.69
2022-10-19T19:28:57.675Z,20.64
2022-10-19T19:34:19.573Z,20.54
2022-10-19T19:39:41.460Z,20.51
2022-10-19T19:45:03.314Z,20.44
2022-10-19T19:50:25.059Z,20.40
2022-10-19T19:55:48.419Z,20.35
2022-10-19T20:01:16.062Z,20.31
2022-10-19T20:06:39.305Z,20.24
2022-10-19T20:12:00.986Z,20.20
2022-10-19T20:17:23.999Z,20.17
2022-10-19T20:22:47.357Z,20.12
2022-10-19T20:28:09.017Z,20.09
2022-10-19T20:33:32.408Z,20.06
2022-10-19T20:38:56.356Z,20.04
2022-10-19T20:44:18.016Z,20.01
2022-10-19T20:49:40.971Z,19.95
2022-10-19T20:55:02.640Z,19.96
2022-10-19T21:00:24.325Z,19.99
2022-10-19T21:05:45.941Z,20.01
2022-10-19T21:11:26.499Z,20.05
2022-10-19T21:16:48.533Z,20.05
2022-10-19T21:22:11.735Z,20.07
2022-10-19T21:27:33.655Z,20.07
2022-10-19T21:32:55.648Z,20.07
2022-10-19T21:38:17.258Z,20.07
2022-10-19T21:43:39.511Z,20.07
2022-10-19T21:49:01.320Z,20.07
2022-10-19T21:54:25.463Z,20.06
2022-10-19T21:59:47.157Z,20.03
2022-10-19T22:05:08.968Z,19.99
2022-10-19T22:10:30.989Z,19.95
2022-10-19T22:15:52.657Z,19.92
2022-10-19T22:21:17.201Z,19.89
2022-10-19T22:26:42.773Z,19.86
2022-10-19T22:32:04.579Z,19.82
2022-10-19T22:37:26.262Z,19.80
2022-10-19T22:42:47.943Z,19.78
2022-10-19T22:48:09.772Z,19.75
2022-10-19T22:53:31.448Z,19.72
2022-10-19T22:58:53.140Z,19.69
2022-10-19T23:04:14.888Z,19.67
2022-10-19T23:09:37.381Z,19.65
2022-10-19T23:14:59.119Z,19.64
2022-10-19T23:20:20.881Z,19.60
2022-10-19T23:25:42.737Z,19.59
2022-10-19T23:31:07.887Z,19.57
2022-10-19T23:36:29.990Z,19.56
2022-10-19T23:41:51.692Z,19.54
2022-10-19T23:47:13.394Z,19.52
2022-10-19T23:52:35.074Z,19.51
2022-10-19T23:57:56.808Z,19.50
